sensor_id;sensor_type;location;lat;lon;timestamp;P1;durP1;ratioP1;P2;durP2;ratioP2
11004;SDS011;5555;59.622;16.556;2023-06-10T00:01:50;0.57;;;0.50;;
11004;SDS011;5555;59.622;16.556;2023-06-10T00:04:16;0.87;;;0.60;;
11004;SDS011;5555;59.622;16.556;2023-06-10T00:06:45;1.37;;;0.60;;
11004;SDS011;5555;59.622;16.556;2023-06-10T00:09:14;0.80;;;0.63;;
11004;SDS011;5555;59.622;16.556;2023-06-10T00:11:40;0.97;;;0.70;;
11004;SDS011;5555;59.622;16.556;2023-06-10T00:14:07;0.80;;;0.70;;
11004;SDS011;5555;59.622;16.556;2023-06-10T00:16:33;1.57;;;0.67;;
11004;SDS011;5555;59.622;16.556;2023-06-10T00:18:59;0.83;;;0.60;;
11004;SDS011;5555;59.622;16.556;2023-06-10T00:21:25;1.40;;;0.73;;
11004;SDS011;5555;59.622;16.556;2023-06-10T00:24:06;0.80;;;0.80;;
11004;SDS011;5555;59.622;16.556;2023-06-10T00:26:37;0.60;;;0.50;;
11004;SDS011;5555;59.622;16.556;2023-06-10T00:29:04;0.80;;;0.77;;
11004;SDS011;5555;59.622;16.556;2023-06-10T00:31:30;1.47;;;0.80;;
11004;SDS011;5555;59.622;16.556;2023-06-10T00:33:56;3.67;;;1.00;;
11004;SDS011;5555;59.622;16.556;2023-06-10T00:36:21;1.10;;;0.80;;
11004;SDS011;5555;59.622;16.556;2023-06-10T00:38:47;1.73;;;0.90;;
11004;SDS011;5555;59.622;16.556;2023-06-10T00:41:12;1.87;;;0.70;;
11004;SDS011;5555;59.622;16.556;2023-06-10T00:43:38;4.43;;;1.10;;
11004;SDS011;5555;59.622;16.556;2023-06-10T00:46:04;1.40;;;1.07;;
11004;SDS011;5555;59.622;16.556;2023-06-10T00:48:30;2.03;;;0.80;;
11004;SDS011;5555;59.622;16.556;2023-06-10T00:50:56;2.30;;;0.80;;
11004;SDS011;5555;59.622;16.556;2023-06-10T00:53:23;4.03;;;1.27;;
11004;SDS011;5555;59.622;16.556;2023-06-10T00:55:50;1.30;;;0.80;;
11004;SDS011;5555;59.622;16.556;2023-06-10T00:58:15;1.00;;;0.80;;
11004;SDS011;5555;59.622;16.556;2023-06-10T01:00:41;2.77;;;0.87;;
11004;SDS011;5555;59.622;16.556;2023-06-10T01:03:07;1.53;;;0.87;;
11004;SDS011;5555;59.622;16.556;2023-06-10T01:05:36;2.50;;;0.90;;
11004;SDS011;5555;59.622;16.556;2023-06-10T01:08:04;0.93;;;0.70;;
11004;SDS011;5555;59.622;16.556;2023-06-10T01:11:05;1.60;;;1.10;;
11004;SDS011;5555;59.622;16.556;2023-06-10T01:13:32;1.37;;;1.00;;
11004;SDS011;5555;59.622;16.556;2023-06-10T01:16:00;1.60;;;0.90;;
11004;SDS011;5555;59.622;16.556;2023-06-10T01:18:29;2.13;;;0.83;;
11004;SDS011;5555;59.622;16.556;2023-06-10T01:20:55;1.43;;;0.93;;
11004;SDS011;5555;59.622;16.556;2023-06-10T01:23:22;3.17;;;1.10;;
11004;SDS011;5555;59.622;16.556;2023-06-10T01:26:02;2.60;;;1.10;;
11004;SDS011;5555;59.622;16.556;2023-06-10T01:31:07;1.50;;;1.00;;
11004;SDS011;5555;59.622;16.556;2023-06-10T01:33:37;1.83;;;0.97;;
11004;SDS011;5555;59.622;16.556;2023-06-10T01:36:04;2.13;;;1.20;;
11004;SDS011;5555;59.622;16.556;2023-06-10T01:38:30;1.20;;;0.83;;
11004;SDS011;5555;59.622;16.556;2023-06-10T01:40:58;1.97;;;1.27;;
11004;SDS011;5555;59.622;16.556;2023-06-10T01:43:24;2.27;;;1.20;;
11004;SDS011;5555;59.622;16.556;2023-06-10T01:45:50;3.30;;;1.10;;
11004;SDS011;5555;59.622;16.556;2023-06-10T01:48:16;1.30;;;1.00;;
11004;SDS011;5555;59.622;16.556;2023-06-10T01:50:42;3.70;;;0.90;;
11004;SDS011;5555;59.622;16.556;2023-06-10T01:53:08;2.13;;;1.10;;
11004;SDS011;5555;59.622;16.556;2023-06-10T01:55:34;1.07;;;0.90;;
11004;SDS011;5555;59.622;16.556;2023-06-10T01:58:00;1.63;;;1.00;;
11004;SDS011;5555;59.622;16.556;2023-06-10T02:00:25;1.03;;;0.90;;
11004;SDS011;5555;59.622;16.556;2023-06-10T02:02:51;1.70;;;0.90;;
11004;SDS011;5555;59.622;16.556;2023-06-10T02:05:17;2.10;;;0.80;;
11004;SDS011;5555;59.622;16.556;2023-06-10T02:07:43;1.83;;;0.90;;
11004;SDS011;5555;59.622;16.556;2023-06-10T02:10:09;2.57;;;1.03;;
11004;SDS011;5555;59.622;16.556;2023-06-10T02:12:34;1.40;;;1.00;;
11004;SDS011;5555;59.622;16.556;2023-06-10T02:15:00;0.97;;;0.60;;
11004;SDS011;5555;59.622;16.556;2023-06-10T02:17:25;2.93;;;0.87;;
11004;SDS011;5555;59.622;16.556;2023-06-10T02:19:51;1.00;;;0.90;;
11004;SDS011;5555;59.622;16.556;2023-06-10T02:22:21;2.33;;;0.77;;
11004;SDS011;5555;59.622;16.556;2023-06-10T02:24:47;1.00;;;0.90;;
11004;SDS011;5555;59.622;16.556;2023-06-10T02:27:14;0.83;;;0.73;;
11004;SDS011;5555;59.622;16.556;2023-06-10T02:29:40;1.37;;;0.80;;
11004;SDS011;5555;59.622;16.556;2023-06-10T02:32:06;1.50;;;0.80;;
11004;SDS011;5555;59.622;16.556;2023-06-10T02:34:32;1.97;;;1.00;;
11004;SDS011;5555;59.622;16.556;2023-06-10T02:36:58;1.27;;;0.87;;
11004;SDS011;5555;59.622;16.556;2023-06-10T02:39:24;0.73;;;0.70;;
11004;SDS011;5555;59.622;16.556;2023-06-10T02:41:50;0.93;;;0.80;;
11004;SDS011;5555;59.622;16.556;2023-06-10T02:44:16;1.07;;;0.73;;
11004;SDS011;5555;59.622;16.556;2023-06-10T02:46:43;0.70;;;0.63;;
11004;SDS011;5555;59.622;16.556;2023-06-10T02:49:08;1.17;;;0.80;;
11004;SDS011;5555;59.622;16.556;2023-06-10T02:51:35;0.60;;;0.60;;
11004;SDS011;5555;59.622;16.556;2023-06-10T02:54:01;1.87;;;0.87;;
11004;SDS011;5555;59.622;16.556;2023-06-10T02:56:27;2.50;;;0.70;;
11004;SDS011;5555;59.622;16.556;2023-06-10T02:58:53;0.87;;;0.40;;
11004;SDS011;5555;59.622;16.556;2023-06-10T03:01:18;1.20;;;0.60;;
11004;SDS011;5555;59.622;16.556;2023-06-10T03:03:44;2.17;;;0.60;;
11004;SDS011;5555;59.622;16.556;2023-06-10T03:06:11;0.73;;;0.63;;
11004;SDS011;5555;59.622;16.556;2023-06-10T03:08:37;0.60;;;0.60;;
11004;SDS011;5555;59.622;16.556;2023-06-10T03:11:03;0.70;;;0.60;;
11004;SDS011;5555;59.622;16.556;2023-06-10T03:13:29;1.13;;;0.70;;
11004;SDS011;5555;59.622;16.556;2023-06-10T03:15:55;0.60;;;0.50;;
11004;SDS011;5555;59.622;16.556;2023-06-10T03:18:21;1.13;;;0.50;;
11004;SDS011;5555;59.622;16.556;2023-06-10T03:20:51;0.73;;;0.60;;
11004;SDS011;5555;59.622;16.556;2023-06-10T03:23:16;1.30;;;0.53;;
11004;SDS011;5555;59.622;16.556;2023-06-10T03:25:44;0.93;;;0.60;;
11004;SDS011;5555;59.622;16.556;2023-06-10T03:28:10;1.57;;;0.90;;
11004;SDS011;5555;59.622;16.556;2023-06-10T03:30:35;0.50;;;0.50;;
11004;SDS011;5555;59.622;16.556;2023-06-10T03:33:01;0.70;;;0.50;;
11004;SDS011;5555;59.622;16.556;2023-06-10T03:35:27;0.60;;;0.53;;
11004;SDS011;5555;59.622;16.556;2023-06-10T03:37:53;1.00;;;0.60;;
11004;SDS011;5555;59.622;16.556;2023-06-10T03:40:19;0.80;;;0.60;;
11004;SDS011;5555;59.622;16.556;2023-06-10T03:42:45;0.60;;;0.57;;
11004;SDS011;5555;59.622;16.556;2023-06-10T03:45:11;0.80;;;0.60;;
11004;SDS011;5555;59.622;16.556;2023-06-10T03:47:37;0.60;;;0.60;;
11004;SDS011;5555;59.622;16.556;2023-06-10T03:50:05;1.60;;;0.60;;
11004;SDS011;5555;59.622;16.556;2023-06-10T03:52:33;1.50;;;0.57;;
11004;SDS011;5555;59.622;16.556;2023-06-10T03:54:59;0.57;;;0.50;;
11004;SDS011;5555;59.622;16.556;2023-06-10T03:57:25;3.70;;;0.83;;
11004;SDS011;5555;59.622;16.556;2023-06-10T03:59:51;0.60;;;0.60;;
11004;SDS011;5555;59.622;16.556;2023-06-10T04:02:18;1.83;;;0.70;;
11004;SDS011;5555;59.622;16.556;2023-06-10T04:04:43;2.47;;;0.50;;
11004;SDS011;5555;59.622;16.556;2023-06-10T04:07:09;2.00;;;0.53;;
11004;SDS011;5555;59.622;16.556;2023-06-10T04:09:37;1.33;;;0.53;;
11004;SDS011;5555;59.622;16.556;2023-06-10T04:12:03;1.13;;;0.70;;
11004;SDS011;5555;59.622;16.556;2023-06-10T04:14:33;0.63;;;0.43;;
11004;SDS011;5555;59.622;16.556;2023-06-10T04:17:02;2.63;;;0.60;;
11004;SDS011;5555;59.622;16.556;2023-06-10T04:19:28;0.90;;;0.60;;
11004;SDS011;5555;59.622;16.556;2023-06-10T04:21:56;1.13;;;0.70;;
11004;SDS011;5555;59.622;16.556;2023-06-10T04:24:22;1.37;;;0.50;;
11004;SDS011;5555;59.622;16.556;2023-06-10T04:26:48;0.97;;;0.80;;
11004;SDS011;5555;59.622;16.556;2023-06-10T04:29:14;0.60;;;0.60;;
11004;SDS011;5555;59.622;16.556;2023-06-10T04:31:40;1.30;;;0.70;;
11004;SDS011;5555;59.622;16.556;2023-06-10T04:34:06;0.70;;;0.60;;
11004;SDS011;5555;59.622;16.556;2023-06-10T04:36:32;0.77;;;0.60;;
11004;SDS011;5555;59.622;16.556;2023-06-10T04:38:58;0.70;;;0.70;;
11004;SDS011;5555;59.622;16.556;2023-06-10T04:41:24;0.60;;;0.60;;
11004;SDS011;5555;59.622;16.556;2023-06-10T04:43:52;2.37;;;0.80;;
11004;SDS011;5555;59.622;16.556;2023-06-10T04:46:18;0.93;;;0.80;;
11004;SDS011;5555;59.622;16.556;2023-06-10T04:48:44;0.73;;;0.50;;
11004;SDS011;5555;59.622;16.556;2023-06-10T04:51:12;0.73;;;0.70;;
11004;SDS011;5555;59.622;16.556;2023-06-10T04:53:38;1.10;;;0.63;;
11004;SDS011;5555;59.622;16.556;2023-06-10T04:56:05;2.00;;;0.83;;
11004;SDS011;5555;59.622;16.556;2023-06-10T04:58:32;1.23;;;1.00;;
11004;SDS011;5555;59.622;16.556;2023-06-10T05:00:58;1.07;;;0.80;;
11004;SDS011;5555;59.622;16.556;2023-06-10T05:03:25;0.80;;;0.80;;
11004;SDS011;5555;59.622;16.556;2023-06-10T05:05:51;1.30;;;0.70;;
11004;SDS011;5555;59.622;16.556;2023-06-10T05:08:17;0.80;;;0.67;;
11004;SDS011;5555;59.622;16.556;2023-06-10T05:10:43;1.20;;;0.70;;
11004;SDS011;5555;59.622;16.556;2023-06-10T05:13:09;1.10;;;0.70;;
11004;SDS011;5555;59.622;16.556;2023-06-10T05:15:35;0.80;;;0.60;;
11004;SDS011;5555;59.622;16.556;2023-06-10T05:18:02;1.40;;;0.70;;
11004;SDS011;5555;59.622;16.556;2023-06-10T05:20:28;1.40;;;0.70;;
11004;SDS011;5555;59.622;16.556;2023-06-10T05:22:54;1.57;;;0.70;;
11004;SDS011;5555;59.622;16.556;2023-06-10T05:25:20;1.37;;;0.70;;
11004;SDS011;5555;59.622;16.556;2023-06-10T05:27:47;1.83;;;0.73;;
11004;SDS011;5555;59.622;16.556;2023-06-10T05:30:13;0.77;;;0.53;;
11004;SDS011;5555;59.622;16.556;2023-06-10T05:32:39;0.50;;;0.43;;
11004;SDS011;5555;59.622;16.556;2023-06-10T05:35:05;1.53;;;0.50;;
11004;SDS011;5555;59.622;16.556;2023-06-10T05:37:33;1.10;;;0.60;;
11004;SDS011;5555;59.622;16.556;2023-06-10T05:40:00;0.50;;;0.50;;
11004;SDS011;5555;59.622;16.556;2023-06-10T05:42:26;1.43;;;0.57;;
11004;SDS011;5555;59.622;16.556;2023-06-10T05:44:52;0.97;;;0.70;;
11004;SDS011;5555;59.622;16.556;2023-06-10T05:47:18;1.37;;;0.50;;
11004;SDS011;5555;59.622;16.556;2023-06-10T05:49:44;0.50;;;0.43;;
11004;SDS011;5555;59.622;16.556;2023-06-10T05:52:13;0.50;;;0.50;;
11004;SDS011;5555;59.622;16.556;2023-06-10T05:54:38;0.50;;;0.30;;
11004;SDS011;5555;59.622;16.556;2023-06-10T05:57:04;0.73;;;0.60;;
11004;SDS011;5555;59.622;16.556;2023-06-10T05:59:30;1.00;;;0.47;;
11004;SDS011;5555;59.622;16.556;2023-06-10T06:01:56;0.73;;;0.40;;
11004;SDS011;5555;59.622;16.556;2023-06-10T06:04:22;0.50;;;0.30;;
11004;SDS011;5555;59.622;16.556;2023-06-10T06:06:48;0.73;;;0.40;;
11004;SDS011;5555;59.622;16.556;2023-06-10T06:09:14;0.40;;;0.37;;
11004;SDS011;5555;59.622;16.556;2023-06-10T06:11:40;0.70;;;0.40;;
11004;SDS011;5555;59.622;16.556;2023-06-10T06:14:06;0.40;;;0.40;;
11004;SDS011;5555;59.622;16.556;2023-06-10T06:16:32;1.00;;;0.50;;
11004;SDS011;5555;59.622;16.556;2023-06-10T06:18:58;0.40;;;0.30;;
11004;SDS011;5555;59.622;16.556;2023-06-10T06:21:24;2.30;;;0.40;;
11004;SDS011;5555;59.622;16.556;2023-06-10T06:23:50;0.70;;;0.43;;
11004;SDS011;5555;59.622;16.556;2023-06-10T06:26:16;0.57;;;0.30;;
11004;SDS011;5555;59.622;16.556;2023-06-10T06:28:42;0.30;;;0.20;;
11004;SDS011;5555;59.622;16.556;2023-06-10T06:31:08;0.20;;;0.20;;
11004;SDS011;5555;59.622;16.556;2023-06-10T06:33:34;1.37;;;0.30;;
11004;SDS011;5555;59.622;16.556;2023-06-10T06:36:00;0.20;;;0.10;;
11004;SDS011;5555;59.622;16.556;2023-06-10T06:38:26;0.30;;;0.30;;
11004;SDS011;5555;59.622;16.556;2023-06-10T06:40:52;0.77;;;0.30;;
11004;SDS011;5555;59.622;16.556;2023-06-10T06:43:18;0.23;;;0.20;;
11004;SDS011;5555;59.622;16.556;2023-06-10T06:45:44;0.40;;;0.27;;
11004;SDS011;5555;59.622;16.556;2023-06-10T06:48:10;0.30;;;0.20;;
11004;SDS011;5555;59.622;16.556;2023-06-10T06:50:36;0.30;;;0.30;;
11004;SDS011;5555;59.622;16.556;2023-06-10T06:53:03;0.67;;;0.30;;
11004;SDS011;5555;59.622;16.556;2023-06-10T06:55:29;1.17;;;0.30;;
11004;SDS011;5555;59.622;16.556;2023-06-10T06:57:57;0.30;;;0.20;;
11004;SDS011;5555;59.622;16.556;2023-06-10T07:00:23;0.20;;;0.20;;
11004;SDS011;5555;59.622;16.556;2023-06-10T07:02:49;1.27;;;0.30;;
11004;SDS011;5555;59.622;16.556;2023-06-10T07:05:15;0.27;;;0.27;;
11004;SDS011;5555;59.622;16.556;2023-06-10T07:07:41;0.50;;;0.30;;
11004;SDS011;5555;59.622;16.556;2023-06-10T07:10:07;0.60;;;0.50;;
11004;SDS011;5555;59.622;16.556;2023-06-10T07:12:33;0.30;;;0.30;;
11004;SDS011;5555;59.622;16.556;2023-06-10T07:14:59;2.23;;;0.50;;
11004;SDS011;5555;59.622;16.556;2023-06-10T07:17:25;0.30;;;0.30;;
11004;SDS011;5555;59.622;16.556;2023-06-10T07:19:52;0.30;;;0.27;;
11004;SDS011;5555;59.622;16.556;2023-06-10T07:22:18;0.70;;;0.43;;
11004;SDS011;5555;59.622;16.556;2023-06-10T07:24:44;0.40;;;0.40;;
11004;SDS011;5555;59.622;16.556;2023-06-10T07:27:10;0.80;;;0.20;;
11004;SDS011;5555;59.622;16.556;2023-06-10T07:29:36;0.70;;;0.50;;
11004;SDS011;5555;59.622;16.556;2023-06-10T07:32:05;0.57;;;0.30;;
11004;SDS011;5555;59.622;16.556;2023-06-10T07:34:31;0.40;;;0.40;;
11004;SDS011;5555;59.622;16.556;2023-06-10T07:36:57;0.30;;;0.30;;
11004;SDS011;5555;59.622;16.556;2023-06-10T07:39:23;0.90;;;0.40;;
11004;SDS011;5555;59.622;16.556;2023-06-10T07:41:49;0.30;;;0.30;;
11004;SDS011;5555;59.622;16.556;2023-06-10T07:44:15;0.50;;;0.20;;
11004;SDS011;5555;59.622;16.556;2023-06-10T07:46:41;0.20;;;0.20;;
11004;SDS011;5555;59.622;16.556;2023-06-10T07:49:07;0.53;;;0.30;;
11004;SDS011;5555;59.622;16.556;2023-06-10T07:51:32;0.50;;;0.33;;
11004;SDS011;5555;59.622;16.556;2023-06-10T07:53:58;0.57;;;0.40;;
11004;SDS011;5555;59.622;16.556;2023-06-10T07:56:24;0.30;;;0.20;;
11004;SDS011;5555;59.622;16.556;2023-06-10T07:58:51;0.63;;;0.30;;
11004;SDS011;5555;59.622;16.556;2023-06-10T08:01:17;0.30;;;0.30;;
11004;SDS011;5555;59.622;16.556;2023-06-10T08:03:43;0.40;;;0.30;;
11004;SDS011;5555;59.622;16.556;2023-06-10T08:06:09;0.37;;;0.20;;
11004;SDS011;5555;59.622;16.556;2023-06-10T08:08:36;0.30;;;0.30;;
11004;SDS011;5555;59.622;16.556;2023-06-10T08:11:07;0.70;;;0.40;;
11004;SDS011;5555;59.622;16.556;2023-06-10T08:13:33;0.93;;;0.40;;
11004;SDS011;5555;59.622;16.556;2023-06-10T08:15:59;0.93;;;0.40;;
11004;SDS011;5555;59.622;16.556;2023-06-10T08:18:25;0.30;;;0.30;;
11004;SDS011;5555;59.622;16.556;2023-06-10T08:20:51;0.53;;;0.30;;
11004;SDS011;5555;59.622;16.556;2023-06-10T08:23:17;0.60;;;0.30;;
11004;SDS011;5555;59.622;16.556;2023-06-10T08:25:44;0.30;;;0.30;;
11004;SDS011;5555;59.622;16.556;2023-06-10T08:28:10;0.80;;;0.50;;
11004;SDS011;5555;59.622;16.556;2023-06-10T08:30:36;0.27;;;0.27;;
11004;SDS011;5555;59.622;16.556;2023-06-10T08:33:02;0.57;;;0.40;;
11004;SDS011;5555;59.622;16.556;2023-06-10T08:35:28;0.30;;;0.30;;
11004;SDS011;5555;59.622;16.556;2023-06-10T08:37:54;0.87;;;0.27;;
11004;SDS011;5555;59.622;16.556;2023-06-10T08:40:20;0.40;;;0.40;;
11004;SDS011;5555;59.622;16.556;2023-06-10T08:42:56;0.40;;;0.30;;
11004;SDS011;5555;59.622;16.556;2023-06-10T08:45:24;0.93;;;0.30;;
11004;SDS011;5555;59.622;16.556;2023-06-10T08:47:56;0.30;;;0.30;;
11004;SDS011;5555;59.622;16.556;2023-06-10T08:50:23;1.83;;;0.30;;
11004;SDS011;5555;59.622;16.556;2023-06-10T08:52:50;2.70;;;0.30;;
11004;SDS011;5555;59.622;16.556;2023-06-10T08:55:18;0.43;;;0.30;;
11004;SDS011;5555;59.622;16.556;2023-06-10T08:57:45;1.13;;;0.40;;
11004;SDS011;5555;59.622;16.556;2023-06-10T09:00:13;0.43;;;0.30;;
11004;SDS011;5555;59.622;16.556;2023-06-10T09:02:39;0.63;;;0.40;;
11004;SDS011;5555;59.622;16.556;2023-06-10T09:05:05;0.23;;;0.23;;
11004;SDS011;5555;59.622;16.556;2023-06-10T09:07:31;0.30;;;0.20;;
11004;SDS011;5555;59.622;16.556;2023-06-10T09:09:59;1.30;;;0.30;;
11004;SDS011;5555;59.622;16.556;2023-06-10T09:12:28;2.50;;;0.43;;
11004;SDS011;5555;59.622;16.556;2023-06-10T09:14:55;0.60;;;0.40;;
11004;SDS011;5555;59.622;16.556;2023-06-10T09:17:21;0.33;;;0.30;;
11004;SDS011;5555;59.622;16.556;2023-06-10T09:19:47;0.90;;;0.40;;
11004;SDS011;5555;59.622;16.556;2023-06-10T09:22:14;0.73;;;0.43;;
11004;SDS011;5555;59.622;16.556;2023-06-10T09:24:40;0.43;;;0.30;;
11004;SDS011;5555;59.622;16.556;2023-06-10T09:27:07;0.30;;;0.30;;
11004;SDS011;5555;59.622;16.556;2023-06-10T09:29:52;0.40;;;0.30;;
11004;SDS011;5555;59.622;16.556;2023-06-10T09:32:19;0.30;;;0.30;;
11004;SDS011;5555;59.622;16.556;2023-06-10T09:34:45;1.10;;;0.40;;
11004;SDS011;5555;59.622;16.556;2023-06-10T09:37:12;1.43;;;0.30;;
11004;SDS011;5555;59.622;16.556;2023-06-10T09:39:39;0.40;;;0.30;;
11004;SDS011;5555;59.622;16.556;2023-06-10T09:42:17;0.63;;;0.40;;
11004;SDS011;5555;59.622;16.556;2023-06-10T09:44:53;1.80;;;0.40;;
11004;SDS011;5555;59.622;16.556;2023-06-10T09:47:19;0.40;;;0.23;;
11004;SDS011;5555;59.622;16.556;2023-06-10T09:49:46;1.53;;;0.50;;
11004;SDS011;5555;59.622;16.556;2023-06-10T09:52:12;0.20;;;0.20;;
11004;SDS011;5555;59.622;16.556;2023-06-10T09:54:38;0.53;;;0.40;;
11004;SDS011;5555;59.622;16.556;2023-06-10T09:57:07;1.23;;;0.40;;
11004;SDS011;5555;59.622;16.556;2023-06-10T09:59:37;0.50;;;0.50;;
11004;SDS011;5555;59.622;16.556;2023-06-10T10:02:03;0.40;;;0.40;;
11004;SDS011;5555;59.622;16.556;2023-06-10T10:04:29;0.63;;;0.40;;
11004;SDS011;5555;59.622;16.556;2023-06-10T10:06:55;1.97;;;0.40;;
11004;SDS011;5555;59.622;16.556;2023-06-10T10:09:21;1.33;;;0.50;;
11004;SDS011;5555;59.622;16.556;2023-06-10T10:11:47;0.70;;;0.40;;
11004;SDS011;5555;59.622;16.556;2023-06-10T10:14:14;1.37;;;0.60;;
11004;SDS011;5555;59.622;16.556;2023-06-10T10:16:42;0.80;;;0.40;;
11004;SDS011;5555;59.622;16.556;2023-06-10T10:19:12;0.60;;;0.40;;
11004;SDS011;5555;59.622;16.556;2023-06-10T10:22:00;1.57;;;0.50;;
11004;SDS011;5555;59.622;16.556;2023-06-10T10:24:30;0.30;;;0.27;;
11004;SDS011;5555;59.622;16.556;2023-06-10T10:26:59;0.60;;;0.50;;
11004;SDS011;5555;59.622;16.556;2023-06-10T10:31:52;0.77;;;0.50;;
11004;SDS011;5555;59.622;16.556;2023-06-10T10:34:24;0.80;;;0.40;;
11004;SDS011;5555;59.622;16.556;2023-06-10T10:36:51;0.50;;;0.40;;
11004;SDS011;5555;59.622;16.556;2023-06-10T10:39:17;1.40;;;0.67;;
11004;SDS011;5555;59.622;16.556;2023-06-10T10:41:43;0.53;;;0.50;;
11004;SDS011;5555;59.622;16.556;2023-06-10T10:44:10;0.87;;;0.43;;
11004;SDS011;5555;59.622;16.556;2023-06-10T10:46:43;0.60;;;0.40;;
11004;SDS011;5555;59.622;16.556;2023-06-10T10:49:10;0.47;;;0.40;;
11004;SDS011;5555;59.622;16.556;2023-06-10T10:51:37;3.10;;;0.50;;
11004;SDS011;5555;59.622;16.556;2023-06-10T10:54:19;0.57;;;0.40;;
11004;SDS011;5555;59.622;16.556;2023-06-10T10:59:54;0.43;;;0.33;;
11004;SDS011;5555;59.622;16.556;2023-06-10T11:05:06;1.60;;;0.50;;
11004;SDS011;5555;59.622;16.556;2023-06-10T11:07:34;0.70;;;0.30;;
11004;SDS011;5555;59.622;16.556;2023-06-10T11:10:00;1.37;;;0.50;;
11004;SDS011;5555;59.622;16.556;2023-06-10T11:15:12;0.50;;;0.33;;
11004;SDS011;5555;59.622;16.556;2023-06-10T11:18:05;0.43;;;0.30;;
11004;SDS011;5555;59.622;16.556;2023-06-10T11:26:11;0.30;;;0.30;;
11004;SDS011;5555;59.622;16.556;2023-06-10T11:31:22;1.33;;;0.40;;
11004;SDS011;5555;59.622;16.556;2023-06-10T11:33:51;2.47;;;0.53;;
11004;SDS011;5555;59.622;16.556;2023-06-10T11:36:19;0.63;;;0.30;;
11004;SDS011;5555;59.622;16.556;2023-06-10T11:38:45;0.60;;;0.40;;
11004;SDS011;5555;59.622;16.556;2023-06-10T11:41:11;1.20;;;0.43;;
11004;SDS011;5555;59.622;16.556;2023-06-10T11:43:40;0.30;;;0.30;;
11004;SDS011;5555;59.622;16.556;2023-06-10T11:46:09;0.97;;;0.30;;
11004;SDS011;5555;59.622;16.556;2023-06-10T11:48:39;0.95;;;0.30;;
11004;SDS011;5555;59.622;16.556;2023-06-10T11:51:07;0.47;;;0.35;;
11004;SDS011;5555;59.622;16.556;2023-06-10T11:53:34;0.73;;;0.40;;
11004;SDS011;5555;59.622;16.556;2023-06-10T11:56:00;0.50;;;0.40;;
11004;SDS011;5555;59.622;16.556;2023-06-10T11:58:26;3.20;;;0.30;;
11004;SDS011;5555;59.622;16.556;2023-06-10T12:00:52;0.32;;;0.32;;
11004;SDS011;5555;59.622;16.556;2023-06-10T12:03:22;2.10;;;0.40;;
11004;SDS011;5555;59.622;16.556;2023-06-10T12:05:57;0.60;;;0.30;;
11004;SDS011;5555;59.622;16.556;2023-06-10T12:08:25;1.00;;;0.30;;
11004;SDS011;5555;59.622;16.556;2023-06-10T12:10:52;0.93;;;0.28;;
11004;SDS011;5555;59.622;16.556;2023-06-10T12:13:18;0.40;;;0.30;;
11004;SDS011;5555;59.622;16.556;2023-06-10T12:15:44;4.53;;;0.63;;
11004;SDS011;5555;59.622;16.556;2023-06-10T12:18:20;1.75;;;0.30;;
11004;SDS011;5555;59.622;16.556;2023-06-10T12:20:47;1.42;;;0.30;;
11004;SDS011;5555;59.622;16.556;2023-06-10T12:23:15;0.30;;;0.20;;
11004;SDS011;5555;59.622;16.556;2023-06-10T12:25:51;6.13;;;0.80;;
11004;SDS011;5555;59.622;16.556;2023-06-10T12:28:20;2.63;;;0.40;;
11004;SDS011;5555;59.622;16.556;2023-06-10T12:30:46;1.20;;;0.40;;
11004;SDS011;5555;59.622;16.556;2023-06-10T12:33:18;6.20;;;0.55;;
11004;SDS011;5555;59.622;16.556;2023-06-10T12:35:48;0.35;;;0.32;;
11004;SDS011;5555;59.622;16.556;2023-06-10T12:38:14;0.60;;;0.40;;
11004;SDS011;5555;59.622;16.556;2023-06-10T12:40:47;0.50;;;0.50;;
11004;SDS011;5555;59.622;16.556;2023-06-10T12:43:13;1.02;;;0.43;;
11004;SDS011;5555;59.622;16.556;2023-06-10T12:45:44;0.65;;;0.40;;
11004;SDS011;5555;59.622;16.556;2023-06-10T12:48:19;3.50;;;0.50;;
11004;SDS011;5555;59.622;16.556;2023-06-10T12:50:50;1.98;;;0.70;;
11004;SDS011;5555;59.622;16.556;2023-06-10T12:53:18;1.00;;;0.30;;
11004;SDS011;5555;59.622;16.556;2023-06-10T12:55:44;6.25;;;0.73;;
11004;SDS011;5555;59.622;16.556;2023-06-10T12:58:11;0.43;;;0.35;;
11004;SDS011;5555;59.622;16.556;2023-06-10T13:00:37;0.65;;;0.40;;
11004;SDS011;5555;59.622;16.556;2023-06-10T13:03:03;1.42;;;0.35;;
11004;SDS011;5555;59.622;16.556;2023-06-10T13:05:30;1.85;;;0.40;;
11004;SDS011;5555;59.622;16.556;2023-06-10T13:07:57;0.45;;;0.38;;
11004;SDS011;5555;59.622;16.556;2023-06-10T13:10:23;3.30;;;0.35;;
11004;SDS011;5555;59.622;16.556;2023-06-10T13:12:50;0.32;;;0.30;;
11004;SDS011;5555;59.622;16.556;2023-06-10T13:15:16;0.73;;;0.50;;
11004;SDS011;5555;59.622;16.556;2023-06-10T13:17:45;2.97;;;0.43;;
11004;SDS011;5555;59.622;16.556;2023-06-10T13:20:14;0.40;;;0.20;;
11004;SDS011;5555;59.622;16.556;2023-06-10T13:22:41;1.05;;;0.40;;
11004;SDS011;5555;59.622;16.556;2023-06-10T13:25:07;0.30;;;0.30;;
11004;SDS011;5555;59.622;16.556;2023-06-10T13:27:33;0.82;;;0.30;;
11004;SDS011;5555;59.622;16.556;2023-06-10T13:29:59;1.42;;;0.50;;
11004;SDS011;5555;59.622;16.556;2023-06-10T13:32:25;0.70;;;0.40;;
11004;SDS011;5555;59.622;16.556;2023-06-10T13:34:51;0.40;;;0.30;;
11004;SDS011;5555;59.622;16.556;2023-06-10T13:37:18;0.38;;;0.22;;
11004;SDS011;5555;59.622;16.556;2023-06-10T13:39:44;1.60;;;0.30;;
11004;SDS011;5555;59.622;16.556;2023-06-10T13:42:16;0.30;;;0.30;;
11004;SDS011;5555;59.622;16.556;2023-06-10T13:44:45;0.32;;;0.30;;
11004;SDS011;5555;59.622;16.556;2023-06-10T13:47:14;0.55;;;0.35;;
11004;SDS011;5555;59.622;16.556;2023-06-10T13:49:40;0.45;;;0.20;;
11004;SDS011;5555;59.622;16.556;2023-06-10T13:52:06;0.95;;;0.50;;
11004;SDS011;5555;59.622;16.556;2023-06-10T13:54:32;0.35;;;0.32;;
11004;SDS011;5555;59.622;16.556;2023-06-10T13:56:58;0.82;;;0.40;;
11004;SDS011;5555;59.622;16.556;2023-06-10T13:59:25;0.30;;;0.30;;
11004;SDS011;5555;59.622;16.556;2023-06-10T14:01:50;0.38;;;0.28;;
11004;SDS011;5555;59.622;16.556;2023-06-10T14:04:16;2.72;;;0.30;;
11004;SDS011;5555;59.622;16.556;2023-06-10T14:06:42;0.25;;;0.25;;
11004;SDS011;5555;59.622;16.556;2023-06-10T14:09:07;1.00;;;0.40;;
11004;SDS011;5555;59.622;16.556;2023-06-10T14:11:33;0.80;;;0.50;;
11004;SDS011;5555;59.622;16.556;2023-06-10T14:13:59;1.27;;;0.40;;
11004;SDS011;5555;59.622;16.556;2023-06-10T14:16:25;1.52;;;0.43;;
11004;SDS011;5555;59.622;16.556;2023-06-10T14:18:51;0.38;;;0.20;;
11004;SDS011;5555;59.622;16.556;2023-06-10T14:21:17;0.38;;;0.30;;
11004;SDS011;5555;59.622;16.556;2023-06-10T14:23:42;0.43;;;0.32;;
11004;SDS011;5555;59.622;16.556;2023-06-10T14:26:09;0.30;;;0.20;;
11004;SDS011;5555;59.622;16.556;2023-06-10T14:28:35;1.05;;;0.52;;
11004;SDS011;5555;59.622;16.556;2023-06-10T14:31:00;0.50;;;0.30;;
11004;SDS011;5555;59.622;16.556;2023-06-10T14:33:26;2.33;;;0.50;;
11004;SDS011;5555;59.622;16.556;2023-06-10T14:35:52;0.85;;;0.32;;
11004;SDS011;5555;59.622;16.556;2023-06-10T14:38:17;0.68;;;0.15;;
11004;SDS011;5555;59.622;16.556;2023-06-10T14:40:43;0.50;;;0.40;;
11004;SDS011;5555;59.622;16.556;2023-06-10T14:43:09;0.90;;;0.40;;
11004;SDS011;5555;59.622;16.556;2023-06-10T14:45:41;0.90;;;0.30;;
11004;SDS011;5555;59.622;16.556;2023-06-10T14:48:07;0.75;;;0.30;;
11004;SDS011;5555;59.622;16.556;2023-06-10T14:50:36;1.25;;;0.40;;
11004;SDS011;5555;59.622;16.556;2023-06-10T14:53:02;1.33;;;0.30;;
11004;SDS011;5555;59.622;16.556;2023-06-10T14:55:28;2.92;;;0.50;;
11004;SDS011;5555;59.622;16.556;2023-06-10T14:57:53;0.73;;;0.30;;
11004;SDS011;5555;59.622;16.556;2023-06-10T15:00:20;1.75;;;0.43;;
11004;SDS011;5555;59.622;16.556;2023-06-10T15:02:48;0.68;;;0.38;;
11004;SDS011;5555;59.622;16.556;2023-06-10T15:05:15;1.95;;;0.30;;
11004;SDS011;5555;59.622;16.556;2023-06-10T15:07:41;2.38;;;0.50;;
11004;SDS011;5555;59.622;16.556;2023-06-10T15:10:08;0.30;;;0.30;;